createdAt,value
2023-03-01T00:01:34.355Z,95503.69
2023-03-01T00:04:01.933Z,95489.72
2023-03-01T00:06:30.331Z,95496.94
2023-03-01T00:08:58.171Z,95492.72
2023-03-01T00:11:28.824Z,95492.09
2023-03-01T00:13:59.018Z,95496.44
2023-03-01T00:16:35.922Z,95487.28
2023-03-01T00:19:04.153Z,95493.28
2023-03-01T00:21:31.621Z,95484.88
2023-03-01T00:23:59.734Z,95480.28
2023-03-01T00:26:28.195Z,95472.22
2023-03-01T00:28:58.477Z,95473.78
2023-03-01T00:31:31.578Z,95481.41
2023-03-01T00:34:01.915Z,95476.56
2023-03-01T00:36:32.491Z,95480.34
2023-03-01T00:39:00.895Z,95474.56
2023-03-01T00:41:28.879Z,95479.81
2023-03-01T00:44:06.219Z,95483.13
2023-03-01T00:46:37.652Z,95472.56
2023-03-01T00:49:05.919Z,95479.06
2023-03-01T00:51:34.072Z,95478.09
2023-03-01T00:54:03.457Z,95475.53
2023-03-01T00:56:32.213Z,95467.91
2023-03-01T00:59:00.088Z,95466.72
2023-03-01T01:01:33.341Z,95467.16
2023-03-01T01:04:04.505Z,95469.56
2023-03-01T01:06:36.554Z,95469.53
2023-03-01T01:09:06.626Z,95474.06
2023-03-01T01:11:36.587Z,95467.09
2023-03-01T01:14:05.463Z,95461.44
2023-03-01T01:16:33.419Z,95460.13
2023-03-01T01:19:02.115Z,95453.63
2023-03-01T01:21:31.047Z,95459.81
2023-03-01T01:23:59.588Z,95456.06
2023-03-01T01:26:30.687Z,95462.94
2023-03-01T01:28:59.368Z,95451.72
2023-03-01T01:31:29.450Z,95429.09
2023-03-01T01:33:58.940Z,95450.97
2023-03-01T01:36:26.466Z,95451.97
2023-03-01T01:38:54.628Z,95450.50
2023-03-01T01:41:23.057Z,95452.59
2023-03-01T01:44:21.465Z,95451.97
2023-03-01T01:47:00.122Z,95449.38
2023-03-01T01:49:43.202Z,95435.00
2023-03-01T01:52:22.146Z,95437.13
2023-03-01T01:54:49.598Z,95442.47
2023-03-01T01:57:22.700Z,95439.31
2023-03-01T01:59:56.185Z,95433.25
2023-03-01T02:02:24.610Z,95431.34
2023-03-01T02:05:04.904Z,95429.06
2023-03-01T02:07:32.684Z,95426.50
2023-03-01T02:10:00.327Z,95437.13
2023-03-01T02:12:28.177Z,95430.91
2023-03-01T02:14:56.206Z,95425.97
2023-03-01T02:17:24.152Z,95420.09
2023-03-01T02:20:21.847Z,95425.34
2023-03-01T02:22:51.435Z,95411.94
2023-03-01T02:25:29.519Z,95410.38
2023-03-01T02:28:04.612Z,95411.75
2023-03-01T02:30:34.112Z,95403.72
2023-03-01T02:33:04.207Z,95408.28
2023-03-01T02:35:35.594Z,95396.91
2023-03-01T02:38:04.765Z,95395.91
2023-03-01T02:40:34.781Z,95387.47
2023-03-01T02:43:09.502Z,95395.34
2023-03-01T02:45:36.887Z,95391.34
2023-03-01T02:48:04.804Z,95396.66
2023-03-01T02:50:32.315Z,95382.28
2023-03-01T02:53:34.298Z,95377.16
2023-03-01T02:56:02.715Z,95364.78
2023-03-01T02:58:30.440Z,95357.53
2023-03-01T03:00:58.267Z,95355.59
2023-03-01T03:03:27.269Z,95347.91
2023-03-01T03:05:55.328Z,95349.06
2023-03-01T03:08:25.553Z,95349.84
2023-03-01T03:10:54.323Z,95347.63
2023-03-01T03:13:23.377Z,95344.91
2023-03-01T03:15:51.887Z,95346.28
2023-03-01T03:18:20.124Z,95341.44
2023-03-01T03:20:47.703Z,95342.63
2023-03-01T03:23:15.388Z,95349.88
2023-03-01T03:25:42.928Z,95347.28
2023-03-01T03:28:10.993Z,95349.34
2023-03-01T03:30:41.235Z,95349.50
2023-03-01T03:33:12.966Z,95350.88
2023-03-01T03:35:49.551Z,95362.47
2023-03-01T03:38:20.472Z,95353.75
2023-03-01T03:40:51.024Z,95362.22
2023-03-01T03:43:21.309Z,95355.78
2023-03-01T03:45:51.161Z,95347.00
2023-03-01T03:48:19.791Z,95365.84
2023-03-01T03:50:55.545Z,95371.59
2023-03-01T03:53:26.351Z,95371.78
2023-03-01T03:55:55.103Z,95377.63
2023-03-01T03:58:24.443Z,95367.16
2023-03-01T04:00:54.773Z,95374.81
2023-03-01T04:03:22.494Z,95370.59
2023-03-01T04:05:51.946Z,95369.13
2023-03-01T04:08:22.397Z,95368.59
2023-03-01T04:10:52.449Z,95364.72
2023-03-01T04:13:24.212Z,95379.75
2023-03-01T04:15:55.871Z,95363.53
2023-03-01T04:18:26.839Z,95371.66
2023-03-01T04:20:56.712Z,95373.69
2023-03-01T04:23:24.559Z,95365.91
2023-03-01T04:25:58.184Z,95363.75
2023-03-01T04:28:35.554Z,95368.81
2023-03-01T04:31:15.578Z,95370.78
2023-03-01T04:33:48.421Z,95363.66
2023-03-01T04:36:17.887Z,95361.00
2023-03-01T04:38:49.244Z,95352.53
2023-03-01T04:41:22.027Z,95336.75
2023-03-01T04:43:50.122Z,95351.38
2023-03-01T04:46:20.836Z,95350.38
2023-03-01T04:48:48.664Z,95335.53
2023-03-01T04:51:17.151Z,95339.44
2023-03-01T04:53:45.525Z,95343.38
2023-03-01T04:56:17.253Z,95340.38
2023-03-01T04:58:45.599Z,95344.13
2023-03-01T05:01:18.863Z,95347.91
2023-03-01T05:03:48.609Z,95344.91
2023-03-01T05:06:18.181Z,95338.78
2023-03-01T05:08:46.351Z,95332.72
2023-03-01T05:11:14.391Z,95331.25
2023-03-01T05:13:42.946Z,95335.53
2023-03-01T05:16:12.878Z,95334.13
2023-03-01T05:18:41.749Z,95329.66
2023-03-01T05:21:17.487Z,95328.25
2023-03-01T05:23:46.358Z,95323.00
2023-03-01T05:26:30.484Z,95322.69
2023-03-01T05:29:00.640Z,95323.97
2023-03-01T05:31:29.294Z,95317.94
2023-03-01T05:33:57.101Z,95310.44
2023-03-01T05:36:24.607Z,95320.00
2023-03-01T05:38:52.361Z,95320.69
2023-03-01T05:41:19.914Z,95312.28
2023-03-01T05:43:47.388Z,95325.63
2023-03-01T05:46:16.559Z,95317.44
2023-03-01T05:48:44.962Z,95309.00
2023-03-01T05:51:13.354Z,95318.56
2023-03-01T05:53:40.978Z,95318.59
2023-03-01T05:56:09.008Z,95312.97
2023-03-01T05:58:36.599Z,95319.38
2023-03-01T06:01:04.197Z,95305.84
2023-03-01T06:03:31.765Z,95312.00
2023-03-01T06:05:59.974Z,95310.06
2023-03-01T06:08:28.660Z,95297.00
2023-03-01T06:10:56.402Z,95309.25
2023-03-01T06:13:25.004Z,95297.78
2023-03-01T06:15:53.267Z,95297.03
2023-03-01T06:18:21.084Z,95295.09
2023-03-01T06:20:54.966Z,95298.66
2023-03-01T06:23:22.515Z,95290.75
2023-03-01T06:25:50.659Z,95288.41
2023-03-01T06:28:18.224Z,95289.97
2023-03-01T06:30:46.300Z,95288.03
2023-03-01T06:33:14.405Z,95293.03
2023-03-01T06:35:41.958Z,95288.97
2023-03-01T06:38:09.543Z,95299.19
2023-03-01T06:40:37.041Z,95283.22
2023-03-01T06:43:04.782Z,95287.44
2023-03-01T06:45:32.367Z,95270.75
2023-03-01T06:48:07.420Z,95285.28
2023-03-01T06:50:36.928Z,95271.97
2023-03-01T06:53:04.734Z,95271.22
2023-03-01T06:55:32.519Z,95267.44
2023-03-01T06:58:02.078Z,95268.97
2023-03-01T07:00:30.439Z,95261.72
2023-03-01T07:03:01.042Z,95262.13
2023-03-01T07:05:29.319Z,95260.97
2023-03-01T07:07:57.607Z,95248.78
2023-03-01T07:10:25.661Z,95250.72
2023-03-01T07:12:57.040Z,95246.16
2023-03-01T07:15:24.881Z,95247.69
2023-03-01T07:17:52.555Z,95232.03
2023-03-01T07:20:26.735Z,95235.84
2023-03-01T07:22:56.089Z,95232.81
2023-03-01T07:25:23.981Z,95231.28
2023-03-01T07:27:52.967Z,95225.91
2023-03-01T07:30:21.814Z,95232.78
2023-03-01T07:32:49.795Z,95227.06
2023-03-01T07:35:17.556Z,95220.56
2023-03-01T07:37:45.469Z,95224.38
2023-03-01T07:40:13.900Z,95224.41
2023-03-01T07:42:41.590Z,95217.16
2023-03-01T07:45:09.440Z,95208.75
2023-03-01T07:47:37.335Z,95202.69
2023-03-01T07:50:05.615Z,95201.56
2023-03-01T07:52:33.533Z,95190.50
2023-03-01T07:55:01.224Z,95189.34
2023-03-01T07:57:30.599Z,95193.59
2023-03-01T07:59:58.151Z,95178.69
2023-03-01T08:02:25.652Z,95187.44
2023-03-01T08:04:53.269Z,95179.84
2023-03-01T08:07:20.830Z,95185.53
2023-03-01T08:09:48.521Z,95171.09
2023-03-01T08:12:17.639Z,95165.75
2023-03-01T08:14:45.385Z,95171.44
2023-03-01T08:17:15.576Z,95174.47
2023-03-01T08:19:44.546Z,95162.25
2023-03-01T08:22:12.330Z,95158.78
2023-03-01T08:24:39.932Z,95162.25
2023-03-01T08:27:07.477Z,95159.63
2023-03-01T08:29:35.362Z,95160.00
2023-03-01T08:32:03.198Z,95155.44
2023-03-01T08:34:32.455Z,95147.81
2023-03-01T08:36:59.988Z,95156.94
2023-03-01T08:39:27.516Z,95150.13
2023-03-01T08:41:55.337Z,95157.34
2023-03-01T08:44:22.964Z,95148.94
2023-03-01T08:46:53.500Z,95142.09
2023-03-01T08:49:21.992Z,95149.66
2023-03-01T08:51:49.997Z,95146.63
2023-03-01T08:54:23.070Z,95147.78
2023-03-01T08:56:51.044Z,95144.38
2023-03-01T08:59:18.997Z,95141.69
2023-03-01T09:01:46.743Z,95134.09
2023-03-01T09:04:16.201Z,95142.47
2023-03-01T09:06:44.493Z,95123.06
2023-03-01T09:09:17.461Z,95134.44
2023-03-01T09:11:47.674Z,95140.16
2023-03-01T09:14:15.632Z,95134.44
2023-03-01T09:16:43.948Z,95131.38
2023-03-01T09:19:12.435Z,95119.94
2023-03-01T09:21:41.250Z,95124.88
2023-03-01T09:24:15.996Z,95114.16
2023-03-01T09:26:48.857Z,95090.59
2023-03-01T09:29:18.280Z,95111.84
2023-03-01T09:31:45.948Z,95106.88
2023-03-01T09:34:16.660Z,95100.41
2023-03-01T09:36:44.403Z,95094.69
2023-03-01T09:39:11.932Z,95090.47
2023-03-01T09:42:03.658Z,95094.22
2023-03-01T09:44:53.291Z,95093.03
2023-03-01T09:47:28.040Z,95086.53
2023-03-01T09:50:20.018Z,95083.44
2023-03-01T09:53:06.122Z,95083.81
2023-03-01T09:55:40.855Z,95086.84
2023-03-01T09:58:32.212Z,95075.63
2023-03-01T10:01:11.269Z,95073.41
2023-03-01T10:03:46.664Z,95066.91
2023-03-01T10:06:34.033Z,95066.53
2023-03-01T10:09:17.378Z,95060.03
2023-03-01T10:11:50.108Z,95066.94
2023-03-01T10:14:38.513Z,95071.47
2023-03-01T10:17:14.385Z,95056.72
2023-03-01T10:19:45.075Z,95062.78
2023-03-01T10:22:22.667Z,95059.25
2023-03-01T10:24:53.271Z,95062.44
2023-03-01T10:27:25.218Z,95057.78
2023-03-01T10:30:05.390Z,95052.38
2023-03-01T10:32:33.359Z,95052.88
2023-03-01T10:35:00.914Z,95047.94
2023-03-01T10:37:31.043Z,95054.47
2023-03-01T10:40:09.446Z,95056.41
2023-03-01T10:42:39.480Z,95052.56
2023-03-01T10:45:28.477Z,95057.38
2023-03-01T10:48:08.136Z,95055.56
2023-03-01T10:50:37.650Z,95047.25
2023-03-01T10:53:06.518Z,95061.38
2023-03-01T10:55:39.909Z,95050.66
2023-03-01T10:58:27.669Z,95053.25
2023-03-01T11:01:01.842Z,95052.63
2023-03-01T11:03:36.057Z,95054.84
2023-03-01T11:06:12.577Z,95044.13
2023-03-01T11:08:48.679Z,95051.78
2023-03-01T11:11:30.823Z,95038.09
2023-03-01T11:14:27.594Z,95038.38
2023-03-01T11:17:06.678Z,95033.81
2023-03-01T11:19:34.796Z,95034.63
2023-03-01T11:22:17.987Z,95027.00
2023-03-01T11:24:57.343Z,95027.69
2023-03-01T11:27:34.476Z,95027.69
2023-03-01T11:30:09.489Z,95021.22
2023-03-01T11:33:00.164Z,95023.41
2023-03-01T11:35:30.260Z,95024.63
2023-03-01T11:38:24.834Z,95030.25
2023-03-01T11:41:19.757Z,95034.78
2023-03-01T11:43:56.310Z,95033.31
2023-03-01T11:46:53.983Z,95034.84
2023-03-01T11:50:00.336Z,95033.31
2023-03-01T11:52:56.874Z,95033.31
2023-03-01T11:56:02.139Z,95037.53
2023-03-01T11:59:01.068Z,95039.47
2023-03-01T12:01:56.575Z,95035.72
2023-03-01T12:04:42.682Z,95032.78
2023-03-01T12:07:29.143Z,95029.28
2023-03-01T12:10:44.307Z,95020.13
2023-03-01T12:13:39.698Z,95020.91
2023-03-01T12:16:38.430Z,95018.25
2023-03-01T12:19:33.470Z,95013.31
2023-03-01T12:22:27.513Z,95010.66
2023-03-01T12:25:23.461Z,95012.91
2023-03-01T12:28:21.204Z,95011.81
2023-03-01T12:31:11.446Z,95011.88
2023-03-01T12:34:03.577Z,95004.22
2023-03-01T12:37:03.542Z,95009.53
2023-03-01T12:39:51.140Z,95000.09
2023-03-01T12:42:44.367Z,95004.31
2023-03-01T12:45:36.641Z,95014.63
2023-03-01T12:48:19.405Z,95007.81
2023-03-01T12:50:55.386Z,95002.09
2023-03-01T12:53:26.056Z,95002.50
2023-03-01T12:55:57.472Z,95007.09
2023-03-01T12:58:56.814Z,95002.88
2023-03-01T13:01:42.612Z,94996.06
2023-03-01T13:04:19.999Z,94999.47
2023-03-01T13:07:26.688Z,94997.94
2023-03-01T13:10:02.877Z,94996.47
2023-03-01T13:12:51.638Z,94991.88
2023-03-01T13:15:25.333Z,94989.66
2023-03-01T13:18:00.676Z,94994.22
2023-03-01T13:20:54.711Z,94989.66
2023-03-01T13:23:22.585Z,94990.47
2023-03-01T13:26:12.922Z,94992.31
2023-03-01T13:28:46.369Z,94992.03
2023-03-01T13:31:16.942Z,94993.94
2023-03-01T13:33:50.728Z,94987.50
2023-03-01T13:36:31.128Z,94994.69
2023-03-01T13:39:01.730Z,94993.59
2023-03-01T13:41:44.512Z,94998.16
2023-03-01T13:44:21.269Z,94990.19
2023-03-01T13:46:49.929Z,94988.66
2023-03-01T13:49:24.255Z,94993.66
2023-03-01T13:51:52.674Z,94995.19
2023-03-01T13:54:30.690Z,94991.72
2023-03-01T13:57:01.080Z,94998.59
2023-03-01T13:59:30.659Z,94996.69
2023-03-01T14:02:00.981Z,94991.75
2023-03-01T14:04:37.079Z,94987.53
2023-03-01T14:07:25.718Z,94990.97
2023-03-01T14:09:56.496Z,94986.81
2023-03-01T14:12:51.333Z,94984.16
2023-03-01T14:15:36.136Z,94981.50
2023-03-01T14:18:07.511Z,94986.06
2023-03-01T14:20:41.442Z,94986.44
2023-03-01T14:23:14.327Z,94989.81
2023-03-01T14:25:58.594Z,94985.69
2023-03-01T14:28:30.009Z,94983.38
2023-03-01T14:30:59.875Z,94976.16
2023-03-01T14:33:29.109Z,94974.25
2023-03-01T14:36:08.658Z,94980.72
2023-03-01T14:38:39.166Z,94982.59
2023-03-01T14:41:20.224Z,94984.91
2023-03-01T14:43:52.694Z,94983.00
2023-03-01T14:46:37.864Z,94980.72
2023-03-01T14:49:20.504Z,94969.31
2023-03-01T14:52:06.695Z,94981.84
2023-03-01T14:54:34.172Z,94970.78
2023-03-01T14:57:02.671Z,94970.41
2023-03-01T14:59:30.574Z,94967.75
2023-03-01T15:01:59.881Z,94972.31
2023-03-01T15:04:32.457Z,94971.53
2023-03-01T15:07:07.923Z,94965.06
2023-03-01T15:09:38.277Z,94957.06
2023-03-01T15:12:30.880Z,94963.59
2023-03-01T15:15:04.694Z,94952.94
2023-03-01T15:17:40.804Z,94951.03
2023-03-01T15:20:19.059Z,94955.19
2023-03-01T15:22:50.040Z,94954.03
2023-03-01T15:25:29.689Z,94951.38
2023-03-01T15:28:00.905Z,94950.97
2023-03-01T15:30:30.863Z,94948.69
2023-03-01T15:33:20.763Z,94952.13
2023-03-01T15:35:54.542Z,94944.09
2023-03-01T15:38:39.724Z,94941.47
2023-03-01T15:41:28.035Z,94923.22
2023-03-01T15:43:57.030Z,94940.66
2023-03-01T15:46:31.276Z,94938.00
2023-03-01T15:49:21.531Z,94944.47
2023-03-01T15:51:50.124Z,94934.53
2023-03-01T15:54:24.041Z,94930.34
2023-03-01T15:56:53.612Z,94926.88
2023-03-01T15:59:23.464Z,94931.06
2023-03-01T16:01:52.366Z,94936.03
2023-03-01T16:04:28.394Z,94928.81
2023-03-01T16:06:56.517Z,94931.44
2023-03-01T16:09:25.484Z,94923.88
2023-03-01T16:11:54.652Z,94934.16
2023-03-01T16:14:23.608Z,94931.13
2023-03-01T16:16:53.659Z,94932.66
2023-03-01T16:19:30.423Z,94928.84
2023-03-01T16:21:58.071Z,94925.44
2023-03-01T16:24:31.456Z,94923.94
2023-03-01T16:27:00.760Z,94920.88
2023-03-01T16:29:31.682Z,94921.66
2023-03-01T16:32:06.634Z,94917.44
2023-03-01T16:34:34.546Z,94918.59
2023-03-01T16:37:04.559Z,94916.69
2023-03-01T16:39:36.227Z,94913.97
2023-03-01T16:42:03.979Z,94919.66
2023-03-01T16:44:31.653Z,94909.78
2023-03-01T16:46:59.246Z,94902.94
2023-03-01T16:49:26.752Z,94906.72
2023-03-01T16:51:57.402Z,94907.91
2023-03-01T16:54:24.935Z,94900.63
2023-03-01T16:56:52.615Z,94897.22
2023-03-01T16:59:31.753Z,94889.19
2023-03-01T17:01:59.516Z,94884.97
2023-03-01T17:04:27.306Z,94896.06
2023-03-01T17:06:55.148Z,94903.28
2023-03-01T17:09:23.383Z,94899.13
2023-03-01T17:11:51.158Z,94896.81
2023-03-01T17:14:18.930Z,94893.78
2023-03-01T17:16:46.658Z,94885.84
2023-03-01T17:19:18.898Z,94877.06
2023-03-01T17:21:47.256Z,94888.88
2023-03-01T17:24:15.124Z,94888.88
2023-03-01T17:26:42.799Z,94885.84
2023-03-01T17:29:10.563Z,94883.94
2023-03-01T17:31:40.959Z,94880.13
2023-03-01T17:34:09.583Z,94882.03
2023-03-01T17:36:45.012Z,94884.66
2023-03-01T17:39:12.662Z,94878.59
2023-03-01T17:41:40.294Z,94882.41
2023-03-01T17:44:07.866Z,94880.88
2023-03-01T17:46:35.588Z,94887.72
2023-03-01T17:49:04.035Z,94885.84
2023-03-01T17:51:31.797Z,94878.59
2023-03-01T17:53:59.675Z,94883.94
2023-03-01T17:56:27.438Z,94889.25
2023-03-01T17:58:55.394Z,94886.63
2023-03-01T18:01:24.029Z,94875.16
2023-03-01T18:03:53.372Z,94893.09
2023-03-01T18:06:23.424Z,94896.50
2023-03-01T18:08:51.159Z,94893.84
2023-03-01T18:11:20.090Z,94897.28
2023-03-01T18:13:48.133Z,94889.31
2023-03-01T18:16:18.031Z,94882.88
2023-03-01T18:18:46.000Z,94888.56
2023-03-01T18:21:14.310Z,94879.47
2023-03-01T18:23:42.179Z,94878.72
2023-03-01T18:26:13.321Z,94885.19
2023-03-01T18:28:41.072Z,94878.75
2023-03-01T18:31:13.174Z,94877.97
2023-03-01T18:33:41.255Z,94866.19
2023-03-01T18:36:19.059Z,94873.44
2023-03-01T18:38:47.261Z,94877.22
2023-03-01T18:41:15.136Z,94871.53
2023-03-01T18:43:42.698Z,94875.69
2023-03-01T18:46:10.803Z,94863.53
2023-03-01T18:48:39.101Z,94857.84
2023-03-01T18:51:16.859Z,94865.81
2023-03-01T18:53:44.921Z,94857.81
2023-03-01T18:56:13.563Z,94855.53
2023-03-01T18:58:43.370Z,94862.00
2023-03-01T19:01:19.305Z,94857.84
2023-03-01T19:03:47.660Z,94860.88
2023-03-01T19:06:16.728Z,94850.59
2023-03-01T19:11:46.531Z,94852.13
2023-03-01T19:14:14.787Z,94857.47
2023-03-01T19:17:17.611Z,94821.34
2023-03-01T19:19:52.263Z,94836.16
2023-03-01T19:22:19.850Z,94847.19
2023-03-01T19:24:47.424Z,94842.59
2023-03-01T19:27:15.210Z,94847.94
2023-03-01T19:29:42.947Z,94851.00
2023-03-01T19:32:10.831Z,94847.56
2023-03-01T19:34:40.950Z,94852.13
2023-03-01T19:37:10.048Z,94854.03
2023-03-01T19:39:38.730Z,94855.19
2023-03-01T19:42:06.869Z,94849.88
2023-03-01T19:44:34.571Z,94854.41
2023-03-01T19:47:02.386Z,94858.22
2023-03-01T19:49:30.569Z,94858.22
2023-03-01T19:51:58.176Z,94854.03
2023-03-01T19:54:28.740Z,94861.25
2023-03-01T19:56:56.465Z,94867.72
2023-03-01T19:59:28.085Z,94861.59
2023-03-01T20:01:56.432Z,94863.88
2023-03-01T20:04:30.859Z,94862.75
2023-03-01T20:06:58.709Z,94864.28
2023-03-01T20:09:26.383Z,94862.75
2023-03-01T20:11:54.005Z,94878.69
2023-03-01T20:14:23.899Z,94869.19
2023-03-01T20:16:52.900Z,94877.50
2023-03-01T20:19:22.099Z,94878.25
2023-03-01T20:21:50.138Z,94883.19
2023-03-01T20:24:18.986Z,94885.88
2023-03-01T20:26:46.785Z,94875.63
2023-03-01T20:29:14.490Z,94879.41
2023-03-01T20:31:42.940Z,94884.75
2023-03-01T20:34:10.757Z,94890.47
2023-03-01T20:36:39.660Z,94891.59
2023-03-01T20:39:07.899Z,94893.13
2023-03-01T20:41:35.587Z,94902.22
2023-03-01T20:44:04.746Z,94890.84
2023-03-01T20:46:34.305Z,94902.59
2023-03-01T20:49:02.932Z,94897.28
2023-03-01T20:51:31.067Z,94904.84
2023-03-01T20:53:58.740Z,94896.47
2023-03-01T20:56:27.506Z,94913.19
2023-03-01T20:59:05.423Z,94907.16
2023-03-01T21:01:33.115Z,94911.28
2023-03-01T21:04:00.845Z,94912.81
2023-03-01T21:06:29.177Z,94922.25
2023-03-01T21:08:56.940Z,94921.50
2023-03-01T21:11:27.922Z,94921.09
2023-03-01T21:13:56.721Z,94919.97
2023-03-01T21:16:25.283Z,94927.94
2023-03-01T21:18:53.692Z,94921.09
2023-03-01T21:21:23.527Z,94926.00
2023-03-01T21:23:51.293Z,94933.56
2023-03-01T21:26:26.940Z,94921.78
2023-03-01T21:29:01.646Z,94936.97
2023-03-01T21:31:35.422Z,94933.91
2023-03-01T21:34:07.427Z,94945.03
2023-03-01T21:36:36.388Z,94932.00
2023-03-01T21:39:06.181Z,94940.31
2023-03-01T21:41:36.587Z,94944.03
2023-03-01T21:44:06.443Z,94938.69
2023-03-01T21:46:37.196Z,94939.06
2023-03-01T21:49:05.338Z,94937.06
2023-03-01T21:51:33.384Z,94938.16
2023-03-01T21:54:04.087Z,94940.38
2023-03-01T21:56:35.369Z,94935.06
2023-03-01T21:59:03.047Z,94930.03
2023-03-01T22:01:31.096Z,94935.00
2023-03-01T22:04:00.929Z,94926.72
2023-03-01T22:06:35.385Z,94927.00
2023-03-01T22:09:09.014Z,94926.69
2023-03-01T22:11:39.775Z,94944.03
2023-03-01T22:14:08.527Z,94939.78
2023-03-01T22:16:37.535Z,94938.22
2023-03-01T22:19:07.375Z,94945.47
2023-03-01T22:21:36.302Z,94946.28
2023-03-01T22:24:04.465Z,94939.44
2023-03-01T22:26:35.224Z,94946.38
2023-03-01T22:29:06.944Z,94941.44
2023-03-01T22:31:35.032Z,94937.25
2023-03-01T22:34:03.127Z,94943.25
2023-03-01T22:36:31.474Z,94938.69
2023-03-01T22:39:02.515Z,94937.09
2023-03-01T22:41:32.210Z,94935.59
2023-03-01T22:43:59.735Z,94929.50
2023-03-01T22:46:28.540Z,94941.34
2023-03-01T22:48:56.934Z,94931.78
2023-03-01T22:51:30.332Z,94945.03
2023-03-01T22:53:58.359Z,94944.97
2023-03-01T22:56:32.321Z,94941.59
2023-03-01T22:59:03.001Z,94927.91
2023-03-01T23:01:31.178Z,94926.75
2023-03-01T23:03:59.553Z,94931.72
2023-03-01T23:06:31.039Z,94932.44
2023-03-01T23:09:01.597Z,94924.88
2023-03-01T23:11:29.824Z,94924.41
2023-03-01T23:13:59.247Z,94925.94
2023-03-01T23:16:27.210Z,94922.09
2023-03-01T23:18:56.314Z,94922.38
2023-03-01T23:21:23.793Z,94923.84
2023-03-01T23:23:51.846Z,94918.84
2023-03-01T23:26:22.571Z,94922.69
2023-03-01T23:28:51.176Z,94916.88
2023-03-01T23:31:19.603Z,94923.00
2023-03-01T23:33:47.507Z,94929.75
2023-03-01T23:36:21.284Z,94924.47
2023-03-01T23:38:50.430Z,94929.94
2023-03-01T23:41:20.633Z,94932.78
2023-03-01T23:43:50.655Z,94932.34
2023-03-01T23:46:19.947Z,94926.91
2023-03-01T23:48:48.831Z,94931.03
2023-03-01T23:51:20.949Z,94933.66
2023-03-01T23:53:57.901Z,94946.91
2023-03-01T23:56:28.567Z,94931.44
2023-03-01T23:58:57.877Z,94942.66
